Stip, Macedonia
Current Conditions -  °F | °C
As of 1:00 AM on Friday 28 Nov 2014 (Local Time) from LWSK Reporting Station
Overcast Overcast  
Wind Chill: 43°   Ceiling: 1200
Heat Index: 43°   Visibility: 6mi
Dew Point: 41°   Wind: 1mph
Humidity: 93%   Direction: 100°E
Pressure: 30.18"   Gusts: NA
Location:  41.75°N, 22.2°E
Report Text: LWSK 272300Z 10001KT 9999 OVC012 06/05 Q1022 NOSIG
Loading
Personal Weather Stations






























Interactive Weather Map New forecast layout! Learn more

10-Day Weather Forecast

Advertisements
Track Severe Weather on mobile